FW7706 Weather Reports


Display with metric or nautical units.
time (UTC)temp
F
wind
direction
speed
MPH
gust
MPH
rain 1hr
in
rain 24hr
in
rain mn
in
humidity
%
barometer
mb
20220520064049 77 211 3.0 6.0 0.00 0.00 0.00 82 1003.3
20220520063547 77 210 5.0 7.0 0.00 0.00 0.00 81 1003.3
20220520063047 77 203 3.0 3.0 0.00 0.00 0.00 81 1003.3
20220520062545 77 174 9.0 15.0 0.00 0.00 0.00 81 1003.3
20220520062044 77 230 2.0 3.0 0.00 0.00 0.00 81 1003.6
20220520061544 78 219 3.0 3.0 0.00 0.00 0.00 81 1003.3
20220520061044 78 180 5.0 6.0 0.00 0.00 0.00 80 1003.3
20220520060542 78 193 7.0 11.0 0.00 0.00 0.00 81 1003.3
20220520060042 78 220 2.0 3.0 0.00 0.00 0.00 80 1003.3
20220520055540 78 169 6.0 7.0 0.00 0.00 0.00 80 1003.6
20220520055039 78 197 3.0 6.0 0.00 0.00 0.00 81 1003.6
20220520054538 78 220 2.0 3.0 0.00 0.00 0.00 80 1003.6
20220520054037 78 200 3.0 3.0 0.00 0.00 0.00 80 1003.3
20220520053536 78 192 6.0 8.0 0.00 0.00 0.00 80 1003.6
20220520053035 78 192 3.0 5.0 0.00 0.00 0.00 80 1003.6
20220520052534 78 198 3.0 5.0 0.00 0.00 0.00 80 1003.6
20220520052033 79 191 4.0 5.0 0.00 0.00 0.00 80 1003.3
20220520051531 79 194 4.0 6.0 0.00 0.00 0.00 79 1003.6
20220520051029 79 240 5.0 6.0 0.00 0.00 0.00 80 1003.6
20220520050529 79 161 5.0 6.0 0.00 0.00 0.00 79 1003.6
20220520050027 79 200 5.0 7.0 0.00 0.00 0.00 79 1003.6
20220520045526 79 189 3.0 5.0 0.00 0.00 0.00 78 1003.3
20220520045024 79 147 5.0 8.0 0.00 0.00 0.00 78 1003.3
20220520044523 79 192 4.0 5.0 0.00 0.00 0.00 79 1003.3
20220520044022 79 220 3.0 3.0 0.00 0.00 0.00 79 1003.3
20220520043521 79 214 5.0 6.0 0.00 0.00 0.00 78 1003.6
20220520043020 79 189 5.0 10.0 0.00 0.00 0.00 77 1003.6
20220520042519 79 182 3.0 5.0 0.00 0.00 0.00 76 1004.0
20220520042019 79 186 4.0 6.0 0.00 0.00 0.00 76 1004.0
20220520041518 79 203 5.0 6.0 0.00 0.00 0.00 75 1003.6
20220520041016 79 219 3.0 3.0 0.00 0.00 0.00 74 1003.6
20220520040516 80 178 2.0 3.0 0.00 0.00 0.00 73 1003.6
20220520040015 80 192 3.0 3.0 0.00 0.00 0.00 73 1003.6
20220520035514 80 164 3.0 3.0 0.00 0.00 0.00 73 1003.6
20220520035012 80 200 1.0 2.0 0.00 0.00 0.00 73 1003.6
20220520034511 80 203 2.0 2.0 0.00 0.00 0.00 73 1003.6
20220520034010 80 188 3.0 3.0 0.00 0.00 0.00 72 1003.6
20220520033509 80 225 3.0 3.0 0.00 0.00 0.00 72 1003.6
20220520033008 80 204 3.0 3.0 0.00 0.00 0.00 72 1003.6
20220520032507 80 223 3.0 3.0 0.00 0.00 0.00 72 1003.6
20220520032006 80 212 4.0 5.0 0.00 0.00 0.00 72 1003.3
20220520031505 81 233 2.0 3.0 0.00 0.00 0.00 71 1003.3
20220520031004 81 223 3.0 3.0 0.00 0.00 0.00 71 1003.3
20220520030502 81 207 2.0 3.0 0.00 0.00 0.00 71 1003.3
20220520030002 81 193 2.0 3.0 0.00 0.00 0.00 70 1003.3
20220520025501 81 207 4.0 5.0 0.00 0.00 0.00 70 1003.3
20220520025000 81 194 3.0 5.0 0.00 0.00 0.00 70 1003.0
20220520024459 81 176 3.0 3.0 0.00 0.00 0.00 70 1003.3
20220520023959 81 199 3.0 3.0 0.00 0.00 0.00 70 1003.0
20220520023459 81 199 2.0 3.0 0.00 0.00 0.00 71 1003.3
20220520022958 81 189 4.0 5.0 0.00 0.00 0.00 71 1003.0
20220520022456 81 181 4.0 5.0 0.00 0.00 0.00 72 1003.3
20220520021954 81 204 3.0 3.0 0.00 0.00 0.00 72 1003.0
20220520021453 82 224 2.0 2.0 0.00 0.00 0.00 71 1003.0
20220520020952 82 218 2.0 3.0 0.00 0.00 0.00 70 1003.3
20220520020450 82 205 3.0 5.0 0.00 0.00 0.00 69 1003.3
20220520015950 82 191 2.0 2.0 0.00 0.00 0.00 68 1003.3
20220520015450 82 193 2.0 3.0 0.00 0.00 0.00 67 1003.3
20220520014949 83 190 3.0 5.0 0.00 0.00 0.00 67 1003.3
20220520014448 83 183 3.0 3.0 0.00 0.00 0.00 67 1003.0
20220520013948 83 178 3.0 3.0 0.00 0.00 0.00 67 1003.3
20220520013447 83 203 3.0 3.0 0.00 0.00 0.00 66 1003.0
20220520012946 83 188 4.0 5.0 0.00 0.00 0.00 66 1003.0
20220520012445 83 192 3.0 3.0 0.00 0.00 0.00 66 1003.0
20220520011945 83 212 3.0 3.0 0.00 0.00 0.00 66 1003.3
20220520011443 84 192 3.0 3.0 0.00 0.00 0.00 66 1002.6
20220520010942 84 193 3.0 3.0 0.00 0.00 0.00 65 1003.0
20220520010440 84 181 4.0 5.0 0.00 0.00 0.00 65 1002.6
20220520005939 84 213 3.0 5.0 0.00 0.00 0.00 65 1003.0
20220520005437 84 218 2.0 3.0 0.00 0.00 0.00 65 1003.0
20220520004937 84 204 2.0 2.0 0.00 0.00 0.00 65 1003.3
20220520004437 85 199 3.0 3.0 0.00 0.00 0.00 64 1003.3
20220520003935 85 197 3.0 5.0 0.00 0.00 0.00 64 1003.0
20220520003436 85 205 1.0 2.0 0.00 0.00 0.00 64 1003.0
20220520002936 85 191 3.0 3.0 0.00 0.00 0.00 63 1003.3
20220520002434 86 197 3.0 5.0 0.00 0.00 0.00 63 1003.3
20220520001933 86 220 2.0 3.0 0.00 0.00 0.00 63 1003.3
20220520001431 86 204 3.0 3.0 0.00 0.00 0.00 63 1003.3
20220520000931 86 205 2.0 2.0 0.00 0.00 0.00 63 1003.3
20220520000432 86 192 3.0 3.0 0.00 0.00 0.00 63 1003.3
20220519235930 87 208 2.0 2.0 0.00 0.00 0.00 61 1003.3
20220519235431 87 207 3.0 5.0 0.00 0.00 0.00 59 1003.0
20220519234929 87 221 4.0 6.0 0.00 0.00 0.00 59 1003.3
20220519234428 88 194 4.0 7.0 0.00 0.00 0.00 58 1003.3
20220519233927 89 204 4.0 5.0 0.00 0.00 0.00 57 1003.3
20220519233426 89 198 4.0 6.0 0.00 0.00 0.00 58 1003.3
20220519232925 89 180 5.0 7.0 0.00 0.00 0.00 57 1003.3
20220519232423 89 211 3.0 3.0 0.00 0.00 0.00 56 1003.3
20220519231923 89 238 3.0 5.0 0.00 0.00 0.00 56 1003.3
20220519231422 89 198 3.0 5.0 0.00 0.00 0.00 56 1003.3
20220519230921 89 217 7.0 9.0 0.00 0.00 0.00 55 1003.3
20220519230419 90 180 3.0 3.0 0.00 0.00 0.00 55 1003.3
20220519225918 90 177 6.0 8.0 0.00 0.00 0.00 55 1003.3
20220519225417 90 244 3.0 3.0 0.00 0.00 0.00 55 1003.3
20220519224916 90 201 3.0 5.0 0.00 0.00 0.00 54 1003.3
20220519224416 90 190 3.0 6.0 0.00 0.00 0.00 54 1003.3
20220519223914 90 229 3.0 5.0 0.00 0.00 0.00 54 1003.6
20220519223412 91 178 5.0 7.0 0.00 0.00 0.00 54 1003.6
20220519222911 91 226 3.0 5.0 0.00 0.00 0.00 54 1003.3
20220519222410 91 229 7.0 10.0 0.00 0.00 0.00 53 1004.0
20220519221909 91 172 3.0 5.0 0.00 0.00 0.00 54 1003.6
20220519221408 91 204 4.0 6.0 0.00 0.00 0.00 52 1003.6
20220519220906 91 205 4.0 6.0 0.00 0.00 0.00 53 1003.6
20220519220406 92 184 5.0 5.0 0.00 0.00 0.00 52 1003.6
20220519215906 92 203 3.0 3.0 0.00 0.00 0.00 52 1004.0
20220519215406 92 224 3.0 3.0 0.00 0.00 0.00 52 1004.0
20220519214905 92 215 2.0 3.0 0.00 0.00 0.00 52 1004.0
20220519214404 92 224 4.0 6.0 0.00 0.00 0.00 52 1004.3
20220519213903 93 170 4.0 6.0 0.00 0.00 0.00 52 1004.3
20220519213403 93 204 2.0 2.0 0.00 0.00 0.00 52 1004.0
20220519212903 92 211 4.0 5.0 0.00 0.00 0.00 54 1004.3
20220519212359 93 188 3.0 5.0 0.00 0.00 0.00 52 1004.3
20220519211858 92 155 5.0 7.0 0.00 0.00 0.00 53 1004.3
20220519211359 92 198 3.0 3.0 0.00 0.00 0.00 52 1004.3
20220519210857 92 222 2.0 2.0 0.00 0.00 0.00 51 1004.7
20220519210356 92 155 3.0 6.0 0.00 0.00 0.00 51 1004.7
20220519205854 92 237 5.0 6.0 0.00 0.00 0.00 50 1004.7
20220519205353 92 220 5.0 8.0 0.00 0.00 0.00 50 1004.7
20220519204852 93 227 5.0 7.0 0.00 0.00 0.00 51 1005.0
20220519204352 93 226 3.0 5.0 0.00 0.00 0.00 53 1004.7
20220519203850 92 169 2.0 3.0 0.00 0.00 0.00 51 1005.0
20220519203348 91 200 3.0 3.0 0.00 0.00 0.00 50 1005.0
20220519202848 91 198 7.0 9.0 0.00 0.00 0.00 49 1004.7
20220519202346 92 235 4.0 6.0 0.00 0.00 0.00 49 1005.0
20220519201844 92 226 4.0 5.0 0.00 0.00 0.00 51 1005.0
20220519201344 92 169 3.0 3.0 0.00 0.00 0.00 54 1005.0
20220519200844 93 212 4.0 6.0 0.00 0.00 0.00 51 1005.0
20220519200344 93 182 4.0 5.0 0.00 0.00 0.00 50 1005.0
20220519195843 91 250 3.0 3.0 0.00 0.00 0.00 51 1005.7
20220519195342 92 239 5.0 6.0 0.00 0.00 0.00 49 1005.3
20220519194841 91 187 3.0 3.0 0.00 0.00 0.00 52 1005.7
20220519194339 92 213 2.0 2.0 0.00 0.00 0.00 49 1005.7
20220519193838 92 235 5.0 7.0 0.00 0.00 0.00 50 1005.7
20220519193337 92 188 3.0 5.0 0.00 0.00 0.00 51 1005.7
20220519192837 91 203 3.0 3.0 0.00 0.00 0.00 52 1006.0
20220519192335 91 228 3.0 5.0 0.00 0.00 0.00 49 1006.0
20220519191834 91 203 4.0 5.0 0.00 0.00 0.00 50 1006.0
20220519191332 91 218 4.0 5.0 0.00 0.00 0.00 51 1006.0
20220519190832 90 183 2.0 3.0 0.00 0.00 0.00 52 1006.0
20220519190330 90 182 7.0 8.0 0.00 0.00 0.00 50 1006.0
20220519185829 91 165 3.0 3.0 0.00 0.00 0.00 51 1006.4
20220519185327 91 200 4.0 6.0 0.00 0.00 0.00 51 1006.4
20220519184825 91 177 5.0 6.0 0.00 0.00 0.00 51 1006.8
20220519184323 92 209 4.0 5.0 0.00 0.00 0.00 51 1006.4
20220519183823 90 211 2.0 3.0 0.00 0.00 0.00 52 1006.8
20220519183322 91 210 2.0 3.0 0.00 0.00 0.00 50 1006.8
20220519182821 90 243 4.0 8.0 0.00 0.00 0.00 49 1006.8
20220519182321 89 206 5.0 7.0 0.00 0.00 0.00 52 1007.1
20220519181821 90 202 6.0 8.0 0.00 0.00 0.00 50 1007.1
20220519181320 89 225 3.0 5.0 0.00 0.00 0.00 52 1007.1
20220519180820 89 232 4.0 7.0 0.00 0.00 0.00 51 1007.1
20220519180319 89 205 3.0 5.0 0.00 0.00 0.00 53 1007.5
20220519175819 89 207 5.0 7.0 0.00 0.00 0.00 52 1007.8
20220519175319 89 157 7.0 9.0 0.00 0.00 0.00 53 1007.8
20220519174817 89 213 3.0 5.0 0.00 0.00 0.00 55 1007.8
20220519174316 88 168 3.0 5.0 0.00 0.00 0.00 55 1008.1
20220519173815 88 168 4.0 5.0 0.00 0.00 0.00 56 1008.1
20220519173313 88 195 3.0 6.0 0.00 0.00 0.00 55 1008.5
20220519172812 87 190 6.0 8.0 0.00 0.00 0.00 55 1008.5
20220519172311 87 173 6.0 9.0 0.00 0.00 0.00 57 1008.5
20220519171811 88 215 2.0 3.0 0.00 0.00 0.00 56 1008.5
20220519171309 87 230 4.0 6.0 0.00 0.00 0.00 57 1008.8
20220519170808 87 139 6.0 10.0 0.00 0.00 0.00 58 1008.8
20220519170306 87 217 6.0 9.0 0.00 0.00 0.00 56 1008.8
20220519165806 87 256 4.0 6.0 0.00 0.00 0.00 57 1009.2
20220519165305 87 146 2.0 3.0 0.00 0.00 0.00 58 1009.2
20220519164803 86 223 3.0 5.0 0.00 0.00 0.00 58 1009.2
20220519164303 86 187 4.0 6.0 0.00 0.00 0.00 59 1009.2
20220519163802 87 221 1.0 1.0 0.00 0.00 0.00 62 1009.2
20220519163302 86 195 2.0 2.0 0.00 0.00 0.00 63 1009.5
20220519162800 86 246 5.0 7.0 0.00 0.00 0.00 62 1009.5
20220519162259 85 186 3.0 3.0 0.00 0.00 0.00 62 1009.5
20220519161759 85 262 3.0 3.0 0.00 0.00 0.00 65 1009.2
20220519161258 85 200 3.0 3.0 0.00 0.00 0.00 65 1009.8
20220519160757 84 188 5.0 6.0 0.00 0.00 0.00 65 1009.8
20220519160256 84 194 2.0 2.0 0.00 0.00 0.00 65 1009.8
20220519155755 85 213 2.0 2.0 0.00 0.00 0.00 64 1009.8
20220519155254 84 195 2.0 3.0 0.00 0.00 0.00 65 1009.8
20220519154753 83 236 2.0 5.0 0.00 0.00 0.00 66 1010.2
20220519154254 83 199 2.0 2.0 0.00 0.00 0.00 67 1010.2
20220519153753 83 237 2.0 3.0 0.00 0.00 0.00 67 1010.2
20220519153251 83 252 4.0 7.0 0.00 0.00 0.00 68 1010.2
20220519152750 82 191 1.0 2.0 0.00 0.00 0.00 72 1010.2
20220519152249 82 213 3.0 3.0 0.00 0.00 0.00 70 1010.2
20220519151748 83 200 3.0 5.0 0.00 0.00 0.00 71 1010.2
20220519151247 82 160 2.0 2.0 0.00 0.00 0.00 72 1010.2
20220519150746 82 186 3.0 3.0 0.00 0.00 0.00 73 1010.2
20220519150246 80 186 2.0 3.0 0.00 0.00 0.00 75 1010.2
20220519145745 80 223 3.0 5.0 0.00 0.00 0.00 76 1010.2
20220519145244 80 197 3.0 5.0 0.00 0.00 0.00 77 1010.2
20220519144743 80 193 2.0 3.0 0.00 0.00 0.00 78 1010.2
20220519144242 79 232 1.0 2.0 0.00 0.00 0.00 79 1010.2
20220519143740 78 177 4.0 6.0 0.00 0.00 0.00 79 1010.2
20220519143239 78 195 4.0 5.0 0.00 0.00 0.00 80 1010.2
20220519142737 78 188 2.0 2.0 0.00 0.00 0.00 81 1010.5
20220519142237 77 224 3.0 3.0 0.00 0.00 0.00 82 1010.5
20220519141737 77 204 4.0 5.0 0.00 0.00 0.00 82 1010.2
20220519141236 77 189 2.0 2.0 0.00 0.00 0.00 83 1010.5
20220519140736 76 226 4.0 5.0 0.00 0.00 0.00 84 1010.5
20220519140235 76 198 4.0 7.0 0.00 0.00 0.00 84 1010.2
20220519135735 76 177 3.0 5.0 0.00 0.00 0.00 86 1009.8
20220519135235 75 220 4.0 5.0 0.00 0.00 0.00 86 1010.5
20220519134734 75 246 1.0 1.0 0.00 0.00 0.00 87 1010.2
20220519134233 74 192 3.0 3.0 0.00 0.00 0.00 89 1010.2
20220519133732 73 253 3.0 3.0 0.00 0.00 0.00 90 1010.2
20220519133231 73 202 1.0 2.0 0.00 0.00 0.00 91 1010.2
20220519132730 73 189 2.0 2.0 0.00 0.00 0.00 91 1010.2
20220519132229 73 185 1.0 2.0 0.00 0.00 0.00 91 1010.2
20220519131728 73 195 3.0 3.0 0.00 0.00 0.00 91 1010.2
20220519131227 73 185 2.0 2.0 0.00 0.00 0.00 91 1010.8
20220519130726 73 206 1.0 2.0 0.00 0.00 0.00 92 1010.5
20220519130224 73 209 1.0 2.0 0.00 0.00 0.00 91 1010.5
20220519125723 73 201 1.0 2.0 0.00 0.00 0.00 91 1010.2
20220519125222 73 179 2.0 3.0 0.00 0.00 0.00 91 1009.8
20220519124720 73 169 3.0 6.0 0.00 0.00 0.00 91 1010.2
20220519124219 73 183 4.0 5.0 0.00 0.00 0.00 91 1010.2
20220519123718 73 204 1.0 2.0 0.00 0.00 0.00 90 1010.2
20220519123217 73 244 2.0 2.0 0.00 0.00 0.00 90 1010.2
20220519122716 73 194 3.0 3.0 0.00 0.00 0.00 90 1010.2
20220519122214 73 231 2.0 3.0 0.00 0.00 0.00 90 1010.2
20220519121713 73 190 2.0 2.0 0.00 0.00 0.00 90 1010.2
20220519121212 72 201 4.0 5.0 0.00 0.00 0.00 91 1009.8
20220519120710 72 198 2.0 2.0 0.00 0.00 0.00 92 1010.2
20220519120209 72 217 2.0 2.0 0.00 0.00 0.00 92 1010.5
20220519115709 72 216 1.0 1.0 0.00 0.00 0.00 92 1010.5
20220519115208 73 228 4.0 6.0 0.00 0.00 0.00 92 1010.2
20220519114707 73 260 1.0 1.0 0.00 0.00 0.00 91 1009.8
20220519114206 73 207 4.0 6.0 0.00 0.00 0.00 91 1009.8
20220519113705 73 178 2.0 2.0 0.00 0.00 0.00 91 1009.5
20220519113204 73 162 3.0 5.0 0.00 0.00 0.00 90 1009.2
20220519112703 73 217 1.0 1.0 0.00 0.00 0.00 90 1009.5
20220519112203 73 166 3.0 5.0 0.00 0.00 0.00 90 1008.8
20220519111702 73 197 3.0 3.0 0.00 0.00 0.00 90 1008.5
20220519111201 73 195 3.0 5.0 0.00 0.00 0.00 90 1008.1
20220519110700 73 179 5.0 7.0 0.00 0.00 0.00 90 1008.5
20220519110159 73 235 5.0 6.0 0.00 0.00 0.00 89 1008.8
20220519105658 73 204 3.0 5.0 0.00 0.00 0.00 89 1009.2
20220519105157 73 182 4.0 5.0 0.00 0.00 0.00 89 1009.5
20220519104657 73 199 3.0 3.0 0.00 0.00 0.00 89 1009.5
20220519104156 73 226 4.0 5.0 0.00 0.00 0.00 88 1009.5
20220519103655 73 172 3.0 3.0 0.00 0.00 0.00 88 1009.2
20220519103153 73 199 3.0 5.0 0.00 0.00 0.00 88 1009.2
20220519102652 73 215 5.0 7.0 0.00 0.00 0.00 88 1009.2
20220519102151 73 219 1.0 2.0 0.00 0.00 0.00 88 1009.5
20220519101650 73 204 3.0 3.0 0.00 0.00 0.00 88 1009.2
20220519101149 73 219 2.0 2.0 0.00 0.00 0.00 87 1009.2
20220519100647 73 222 2.0 2.0 0.00 0.00 0.00 87 1009.2
20220519100146 73 186 2.0 3.0 0.00 0.00 0.00 87 1009.2
20220519095645 73 187 3.0 3.0 0.00 0.00 0.00 87 1009.2
20220519095143 73 213 2.0 2.0 0.00 0.00 0.00 87 1009.2
20220519094643 73 177 4.0 5.0 0.00 0.00 0.00 86 1008.5
20220519094142 74 219 2.0 2.0 0.00 0.00 0.00 86 1008.5
20220519093640 74 195 3.0 5.0 0.00 0.00 0.00 86 1008.5
20220519093140 74 185 3.0 5.0 0.00 0.00 0.00 85 1008.8
20220519092638 74 169 5.0 8.0 0.00 0.00 0.00 85 1008.8
20220519092137 74 218 4.0 7.0 0.00 0.00 0.00 84 1009.2
20220519091636 74 196 3.0 3.0 0.00 0.00 0.00 84 1009.2
20220519091136 74 140 3.0 6.0 0.00 0.00 0.00 84 1009.5
20220519090635 74 212 2.0 2.0 0.00 0.00 0.00 84 1009.5
20220519090134 75 199 1.0 1.0 0.00 0.00 0.00 83 1009.5
20220519085632 75 259 2.0 3.0 0.00 0.00 0.00 83 1009.5
20220519085131 75 182 3.0 3.0 0.00 0.00 0.00 83 1009.2
20220519084631 75 206 2.0 2.0 0.00 0.00 0.00 82 1009.2
20220519084130 75 203 5.0 7.0 0.00 0.00 0.00 83 1008.8
20220519083629 75 227 3.0 3.0 0.00 0.00 0.00 83 1008.8
20220519083129 75 175 3.0 3.0 0.00 0.00 0.00 82 1008.8
20220519082629 75 190 3.0 3.0 0.00 0.00 0.00 82 1008.8
20220519082128 75 183 1.0 2.0 0.00 0.00 0.00 83 1008.5
20220519081627 75 176 3.0 3.0 0.00 0.00 0.00 82 1008.5
20220519081125 75 198 4.0 5.0 0.00 0.00 0.00 82 1008.5
20220519080625 75 180 3.0 5.0 0.00 0.00 0.00 82 1008.5
20220519080124 75 225 3.0 5.0 0.00 0.00 0.00 82 1008.1
20220519075624 75 259 4.0 6.0 0.00 0.00 0.00 82 1008.5
20220519075123 76 187 4.0 5.0 0.00 0.00 0.00 81 1008.5
20220519074621 76 193 3.0 3.0 0.00 0.00 0.00 81 1008.5
20220519074121 76 162 3.0 5.0 0.00 0.00 0.00 81 1008.5
20220519073620 76 194 2.0 2.0 0.00 0.00 0.00 80 1008.5
20220519073118 76 168 3.0 3.0 0.00 0.00 0.00 80 1008.5
20220519072617 76 155 2.0 2.0 0.00 0.00 0.00 80 1008.8
20220519072117 76 176 3.0 5.0 0.00 0.00 0.00 80 1008.8
20220519071617 76 186 1.0 2.0 0.00 0.00 0.00 79 1009.2
20220519071115 77 189 1.0 2.0 0.00 0.00 0.00 80 1009.2
20220519070614 77 189 3.0 3.0 0.00 0.00 0.00 80 1009.2
20220519070112 77 177 3.0 3.0 0.00 0.00 0.00 79 1009.2
20220519065611 77 208 3.0 5.0 0.00 0.00 0.00 80 1009.5
20220519065110 77 229 3.0 3.0 0.00 0.00 0.00 80 1009.2
20220519064609 77 188 3.0 5.0 0.00 0.00 0.00 79 1009.2